sensor_id;sensor_type;location;lat;lon;timestamp;P1;durP1;ratioP1;P2;durP2;ratioP2
51214;SDS011;63849;47.546;19.254;2022-10-17T00:01:52;13.30;;;10.55;;
51214;SDS011;63849;47.546;19.254;2022-10-17T00:04:17;14.40;;;10.95;;
51214;SDS011;63849;47.546;19.254;2022-10-17T00:06:43;14.05;;;11.48;;
51214;SDS011;63849;47.546;19.254;2022-10-17T00:09:09;11.77;;;10.07;;
51214;SDS011;63849;47.546;19.254;2022-10-17T00:11:35;15.38;;;10.80;;
51214;SDS011;63849;47.546;19.254;2022-10-17T00:14:01;13.40;;;10.77;;
51214;SDS011;63849;47.546;19.254;2022-10-17T00:16:29;15.00;;;11.73;;
51214;SDS011;63849;47.546;19.254;2022-10-17T00:18:57;12.38;;;10.18;;
51214;SDS011;63849;47.546;19.254;2022-10-17T00:21:24;12.15;;;9.65;;
51214;SDS011;63849;47.546;19.254;2022-10-17T00:23:52;13.50;;;10.48;;
51214;SDS011;63849;47.546;19.254;2022-10-17T00:26:18;14.93;;;10.35;;
51214;SDS011;63849;47.546;19.254;2022-10-17T00:28:48;13.55;;;10.73;;
51214;SDS011;63849;47.546;19.254;2022-10-17T00:31:16;11.57;;;10.13;;
51214;SDS011;63849;47.546;19.254;2022-10-17T00:33:43;14.57;;;10.90;;
51214;SDS011;63849;47.546;19.254;2022-10-17T00:36:13;15.07;;;10.45;;
51214;SDS011;63849;47.546;19.254;2022-10-17T00:38:41;15.73;;;11.02;;
51214;SDS011;63849;47.546;19.254;2022-10-17T00:41:10;13.25;;;10.85;;
51214;SDS011;63849;47.546;19.254;2022-10-17T00:46:51;14.93;;;11.23;;
51214;SDS011;63849;47.546;19.254;2022-10-17T00:49:17;12.85;;;10.95;;
51214;SDS011;63849;47.546;19.254;2022-10-17T00:51:51;14.00;;;10.20;;
51214;SDS011;63849;47.546;19.254;2022-10-17T00:54:20;14.85;;;10.73;;
51214;SDS011;63849;47.546;19.254;2022-10-17T00:56:48;15.38;;;12.07;;
51214;SDS011;63849;47.546;19.254;2022-10-17T00:59:15;14.18;;;10.80;;
51214;SDS011;63849;47.546;19.254;2022-10-17T01:01:45;12.52;;;10.90;;
51214;SDS011;63849;47.546;19.254;2022-10-17T01:04:18;12.07;;;10.23;;
51214;SDS011;63849;47.546;19.254;2022-10-17T01:06:44;11.80;;;10.38;;
51214;SDS011;63849;47.546;19.254;2022-10-17T01:09:09;14.77;;;11.13;;
51214;SDS011;63849;47.546;19.254;2022-10-17T01:11:38;13.18;;;10.80;;
51214;SDS011;63849;47.546;19.254;2022-10-17T01:17:04;14.10;;;11.02;;
51214;SDS011;63849;47.546;19.254;2022-10-17T01:19:50;17.25;;;11.57;;
51214;SDS011;63849;47.546;19.254;2022-10-17T01:22:44;16.17;;;10.38;;
51214;SDS011;63849;47.546;19.254;2022-10-17T01:25:27;16.25;;;10.38;;
51214;SDS011;63849;47.546;19.254;2022-10-17T01:39:01;13.23;;;10.85;;
51214;SDS011;63849;47.546;19.254;2022-10-17T01:41:42;12.93;;;10.10;;
51214;SDS011;63849;47.546;19.254;2022-10-17T01:46:53;14.60;;;10.43;;
51214;SDS011;63849;47.546;19.254;2022-10-17T01:49:24;12.05;;;10.35;;
51214;SDS011;63849;47.546;19.254;2022-10-17T01:51:59;13.23;;;10.07;;
51214;SDS011;63849;47.546;19.254;2022-10-17T01:54:38;13.85;;;10.18;;
51214;SDS011;63849;47.546;19.254;2022-10-17T01:57:08;13.13;;;10.27;;
51214;SDS011;63849;47.546;19.254;2022-10-17T01:59:40;14.98;;;10.13;;
51214;SDS011;63849;47.546;19.254;2022-10-17T02:02:08;11.68;;;9.80;;
51214;SDS011;63849;47.546;19.254;2022-10-17T02:04:36;12.50;;;10.10;;
51214;SDS011;63849;47.546;19.254;2022-10-17T02:07:06;14.27;;;10.65;;
51214;SDS011;63849;47.546;19.254;2022-10-17T02:09:35;14.25;;;10.13;;
51214;SDS011;63849;47.546;19.254;2022-10-17T02:12:05;13.32;;;9.43;;
51214;SDS011;63849;47.546;19.254;2022-10-17T02:20:24;11.88;;;9.45;;
51214;SDS011;63849;47.546;19.254;2022-10-17T02:23:46;9.95;;;8.93;;
51214;SDS011;63849;47.546;19.254;2022-10-17T02:26:24;15.07;;;10.75;;
51214;SDS011;63849;47.546;19.254;2022-10-17T02:34:41;14.70;;;10.23;;
51214;SDS011;63849;47.546;19.254;2022-10-17T02:37:14;12.23;;;9.68;;
51214;SDS011;63849;47.546;19.254;2022-10-17T02:39:44;11.98;;;9.52;;
51214;SDS011;63849;47.546;19.254;2022-10-17T02:42:11;11.10;;;9.85;;
51214;SDS011;63849;47.546;19.254;2022-10-17T02:44:39;11.88;;;8.95;;
51214;SDS011;63849;47.546;19.254;2022-10-17T02:47:10;12.20;;;9.40;;
51214;SDS011;63849;47.546;19.254;2022-10-17T02:49:44;12.20;;;9.07;;
51214;SDS011;63849;47.546;19.254;2022-10-17T02:52:35;10.88;;;9.82;;
51214;SDS011;63849;47.546;19.254;2022-10-17T02:55:23;14.25;;;10.48;;
51214;SDS011;63849;47.546;19.254;2022-10-17T02:58:05;15.20;;;10.27;;
51214;SDS011;63849;47.546;19.254;2022-10-17T03:01:04;10.85;;;9.32;;
51214;SDS011;63849;47.546;19.254;2022-10-17T03:03:31;12.75;;;9.40;;
51214;SDS011;63849;47.546;19.254;2022-10-17T03:05:57;10.82;;;9.18;;
51214;SDS011;63849;47.546;19.254;2022-10-17T03:08:22;11.10;;;9.93;;
51214;SDS011;63849;47.546;19.254;2022-10-17T03:10:49;10.43;;;9.30;;
51214;SDS011;63849;47.546;19.254;2022-10-17T03:13:15;13.57;;;10.60;;
51214;SDS011;63849;47.546;19.254;2022-10-17T03:15:41;12.68;;;10.38;;
51214;SDS011;63849;47.546;19.254;2022-10-17T03:18:07;11.75;;;10.32;;
51214;SDS011;63849;47.546;19.254;2022-10-17T03:20:33;12.63;;;10.63;;
51214;SDS011;63849;47.546;19.254;2022-10-17T03:22:59;13.25;;;10.68;;
51214;SDS011;63849;47.546;19.254;2022-10-17T03:25:25;14.30;;;10.70;;
51214;SDS011;63849;47.546;19.254;2022-10-17T03:27:51;15.25;;;11.10;;
51214;SDS011;63849;47.546;19.254;2022-10-17T03:30:17;17.17;;;10.73;;
51214;SDS011;63849;47.546;19.254;2022-10-17T03:32:43;15.68;;;10.52;;
51214;SDS011;63849;47.546;19.254;2022-10-17T03:35:09;14.60;;;10.88;;
51214;SDS011;63849;47.546;19.254;2022-10-17T03:37:35;14.82;;;11.40;;
51214;SDS011;63849;47.546;19.254;2022-10-17T03:40:00;16.77;;;11.38;;
51214;SDS011;63849;47.546;19.254;2022-10-17T03:42:26;19.30;;;11.82;;
51214;SDS011;63849;47.546;19.254;2022-10-17T03:44:52;17.52;;;12.20;;
51214;SDS011;63849;47.546;19.254;2022-10-17T03:47:18;12.93;;;11.45;;
51214;SDS011;63849;47.546;19.254;2022-10-17T03:49:46;16.70;;;12.90;;
51214;SDS011;63849;47.546;19.254;2022-10-17T03:52:12;14.05;;;12.55;;
51214;SDS011;63849;47.546;19.254;2022-10-17T03:54:37;14.02;;;11.95;;
51214;SDS011;63849;47.546;19.254;2022-10-17T03:57:03;13.60;;;11.98;;
51214;SDS011;63849;47.546;19.254;2022-10-17T03:59:29;19.27;;;12.98;;
51214;SDS011;63849;47.546;19.254;2022-10-17T04:01:55;15.88;;;11.85;;
51214;SDS011;63849;47.546;19.254;2022-10-17T04:04:21;17.95;;;13.45;;
51214;SDS011;63849;47.546;19.254;2022-10-17T04:06:46;15.18;;;12.98;;
51214;SDS011;63849;47.546;19.254;2022-10-17T04:09:12;18.08;;;13.35;;
51214;SDS011;63849;47.546;19.254;2022-10-17T04:11:38;18.63;;;14.60;;
51214;SDS011;63849;47.546;19.254;2022-10-17T04:14:04;16.48;;;13.98;;
51214;SDS011;63849;47.546;19.254;2022-10-17T04:16:30;21.42;;;13.68;;
51214;SDS011;63849;47.546;19.254;2022-10-17T04:18:57;19.20;;;15.00;;
51214;SDS011;63849;47.546;19.254;2022-10-17T04:21:24;19.58;;;15.45;;
51214;SDS011;63849;47.546;19.254;2022-10-17T04:23:52;19.50;;;15.60;;
51214;SDS011;63849;47.546;19.254;2022-10-17T04:26:19;17.25;;;15.43;;
51214;SDS011;63849;47.546;19.254;2022-10-17T04:28:45;18.63;;;16.08;;
51214;SDS011;63849;47.546;19.254;2022-10-17T04:31:11;20.52;;;15.02;;
51214;SDS011;63849;47.546;19.254;2022-10-17T04:33:38;18.48;;;14.73;;
51214;SDS011;63849;47.546;19.254;2022-10-17T04:36:06;21.08;;;15.70;;
51214;SDS011;63849;47.546;19.254;2022-10-17T04:38:36;20.10;;;15.98;;
51214;SDS011;63849;47.546;19.254;2022-10-17T04:41:04;21.35;;;16.20;;
51214;SDS011;63849;47.546;19.254;2022-10-17T04:43:32;18.08;;;16.00;;
51214;SDS011;63849;47.546;19.254;2022-10-17T04:46:01;21.00;;;16.58;;
51214;SDS011;63849;47.546;19.254;2022-10-17T04:48:29;20.10;;;15.73;;
51214;SDS011;63849;47.546;19.254;2022-10-17T04:50:57;22.25;;;16.17;;
51214;SDS011;63849;47.546;19.254;2022-10-17T04:53:32;23.45;;;17.55;;
51214;SDS011;63849;47.546;19.254;2022-10-17T04:55:59;20.63;;;16.98;;
51214;SDS011;63849;47.546;19.254;2022-10-17T04:58:27;22.60;;;17.33;;
51214;SDS011;63849;47.546;19.254;2022-10-17T05:00:54;21.40;;;18.05;;
51214;SDS011;63849;47.546;19.254;2022-10-17T05:03:20;23.40;;;17.30;;
51214;SDS011;63849;47.546;19.254;2022-10-17T05:05:46;19.63;;;17.00;;
51214;SDS011;63849;47.546;19.254;2022-10-17T05:08:12;23.83;;;17.33;;
51214;SDS011;63849;47.546;19.254;2022-10-17T05:10:38;19.52;;;15.82;;
51214;SDS011;63849;47.546;19.254;2022-10-17T05:13:05;24.02;;;17.85;;
51214;SDS011;63849;47.546;19.254;2022-10-17T05:15:31;18.08;;;16.08;;
51214;SDS011;63849;47.546;19.254;2022-10-17T05:17:57;22.92;;;16.40;;
51214;SDS011;63849;47.546;19.254;2022-10-17T05:20:23;20.20;;;15.98;;
51214;SDS011;63849;47.546;19.254;2022-10-17T05:22:49;21.85;;;16.42;;
51214;SDS011;63849;47.546;19.254;2022-10-17T05:25:15;21.73;;;17.60;;
51214;SDS011;63849;47.546;19.254;2022-10-17T05:27:41;24.45;;;16.77;;
51214;SDS011;63849;47.546;19.254;2022-10-17T05:30:06;20.60;;;16.35;;
51214;SDS011;63849;47.546;19.254;2022-10-17T05:32:33;21.40;;;17.38;;
51214;SDS011;63849;47.546;19.254;2022-10-17T05:34:58;25.85;;;17.20;;
51214;SDS011;63849;47.546;19.254;2022-10-17T05:37:24;26.40;;;17.25;;
51214;SDS011;63849;47.546;19.254;2022-10-17T05:39:50;23.95;;;17.92;;
51214;SDS011;63849;47.546;19.254;2022-10-17T05:42:16;23.27;;;17.52;;
51214;SDS011;63849;47.546;19.254;2022-10-17T05:44:41;24.15;;;17.08;;
51214;SDS011;63849;47.546;19.254;2022-10-17T05:47:07;25.85;;;17.15;;
51214;SDS011;63849;47.546;19.254;2022-10-17T05:49:33;24.75;;;17.02;;
51214;SDS011;63849;47.546;19.254;2022-10-17T05:51:59;25.55;;;17.40;;
51214;SDS011;63849;47.546;19.254;2022-10-17T05:54:25;23.60;;;17.08;;
51214;SDS011;63849;47.546;19.254;2022-10-17T05:56:51;21.92;;;15.35;;
51214;SDS011;63849;47.546;19.254;2022-10-17T05:59:18;23.20;;;15.52;;
51214;SDS011;63849;47.546;19.254;2022-10-17T06:01:44;23.35;;;15.48;;
51214;SDS011;63849;47.546;19.254;2022-10-17T06:04:09;20.42;;;16.20;;
51214;SDS011;63849;47.546;19.254;2022-10-17T06:06:35;25.77;;;15.18;;
51214;SDS011;63849;47.546;19.254;2022-10-17T06:09:02;22.88;;;13.68;;
51214;SDS011;63849;47.546;19.254;2022-10-17T06:11:28;23.42;;;15.20;;
51214;SDS011;63849;47.546;19.254;2022-10-17T06:13:54;20.60;;;14.35;;
51214;SDS011;63849;47.546;19.254;2022-10-17T06:16:20;19.85;;;14.20;;
51214;SDS011;63849;47.546;19.254;2022-10-17T06:18:46;16.45;;;13.27;;
51214;SDS011;63849;47.546;19.254;2022-10-17T06:21:11;20.90;;;13.70;;
51214;SDS011;63849;47.546;19.254;2022-10-17T06:23:41;20.35;;;13.60;;
51214;SDS011;63849;47.546;19.254;2022-10-17T06:26:07;16.98;;;13.10;;
51214;SDS011;63849;47.546;19.254;2022-10-17T06:28:33;16.23;;;11.75;;
51214;SDS011;63849;47.546;19.254;2022-10-17T06:31:03;17.17;;;13.25;;
51214;SDS011;63849;47.546;19.254;2022-10-17T06:33:30;18.13;;;13.27;;
51214;SDS011;63849;47.546;19.254;2022-10-17T06:35:56;18.13;;;12.77;;
51214;SDS011;63849;47.546;19.254;2022-10-17T06:38:22;19.45;;;12.63;;
51214;SDS011;63849;47.546;19.254;2022-10-17T06:40:47;20.58;;;12.38;;
51214;SDS011;63849;47.546;19.254;2022-10-17T06:43:13;18.42;;;12.60;;
51214;SDS011;63849;47.546;19.254;2022-10-17T06:45:39;17.88;;;12.88;;
51214;SDS011;63849;47.546;19.254;2022-10-17T06:48:06;14.43;;;11.95;;
51214;SDS011;63849;47.546;19.254;2022-10-17T06:50:32;20.17;;;12.30;;
51214;SDS011;63849;47.546;19.254;2022-10-17T06:52:57;13.57;;;11.25;;
51214;SDS011;63849;47.546;19.254;2022-10-17T06:55:23;14.50;;;11.32;;
51214;SDS011;63849;47.546;19.254;2022-10-17T06:57:49;15.63;;;11.38;;
51214;SDS011;63849;47.546;19.254;2022-10-17T07:00:16;14.95;;;11.40;;
51214;SDS011;63849;47.546;19.254;2022-10-17T07:02:42;16.77;;;12.65;;
51214;SDS011;63849;47.546;19.254;2022-10-17T07:05:08;15.45;;;11.32;;
51214;SDS011;63849;47.546;19.254;2022-10-17T07:07:34;16.92;;;12.65;;
51214;SDS011;63849;47.546;19.254;2022-10-17T07:10:00;17.25;;;12.55;;
51214;SDS011;63849;47.546;19.254;2022-10-17T07:12:27;18.48;;;12.35;;
51214;SDS011;63849;47.546;19.254;2022-10-17T07:14:53;13.52;;;10.77;;
51214;SDS011;63849;47.546;19.254;2022-10-17T07:17:19;15.60;;;11.05;;
51214;SDS011;63849;47.546;19.254;2022-10-17T07:19:45;15.90;;;11.52;;
51214;SDS011;63849;47.546;19.254;2022-10-17T07:22:10;13.68;;;11.02;;
51214;SDS011;63849;47.546;19.254;2022-10-17T07:24:37;15.07;;;10.73;;
51214;SDS011;63849;47.546;19.254;2022-10-17T07:27:03;18.25;;;11.35;;
51214;SDS011;63849;47.546;19.254;2022-10-17T07:29:29;12.90;;;10.15;;
51214;SDS011;63849;47.546;19.254;2022-10-17T07:31:54;13.00;;;10.88;;
51214;SDS011;63849;47.546;19.254;2022-10-17T07:34:20;13.13;;;10.43;;
51214;SDS011;63849;47.546;19.254;2022-10-17T07:36:46;17.52;;;11.13;;
51214;SDS011;63849;47.546;19.254;2022-10-17T07:39:11;13.30;;;10.27;;
51214;SDS011;63849;47.546;19.254;2022-10-17T07:41:37;11.32;;;9.98;;
51214;SDS011;63849;47.546;19.254;2022-10-17T07:44:03;14.93;;;11.57;;
51214;SDS011;63849;47.546;19.254;2022-10-17T07:46:29;14.00;;;10.32;;
51214;SDS011;63849;47.546;19.254;2022-10-17T07:48:55;13.63;;;9.13;;
51214;SDS011;63849;47.546;19.254;2022-10-17T07:51:21;12.63;;;10.90;;
51214;SDS011;63849;47.546;19.254;2022-10-17T07:53:47;11.85;;;10.00;;
51214;SDS011;63849;47.546;19.254;2022-10-17T07:56:12;12.82;;;10.68;;
51214;SDS011;63849;47.546;19.254;2022-10-17T07:58:38;12.15;;;9.65;;
51214;SDS011;63849;47.546;19.254;2022-10-17T08:01:05;11.05;;;9.55;;
51214;SDS011;63849;47.546;19.254;2022-10-17T08:03:32;13.10;;;10.13;;
51214;SDS011;63849;47.546;19.254;2022-10-17T08:05:59;14.18;;;9.32;;
51214;SDS011;63849;47.546;19.254;2022-10-17T08:08:25;14.63;;;10.15;;
51214;SDS011;63849;47.546;19.254;2022-10-17T08:10:52;13.20;;;10.30;;
51214;SDS011;63849;47.546;19.254;2022-10-17T08:13:19;11.13;;;9.93;;
51214;SDS011;63849;47.546;19.254;2022-10-17T08:15:46;16.15;;;10.52;;
51214;SDS011;63849;47.546;19.254;2022-10-17T08:18:12;14.80;;;10.45;;
51214;SDS011;63849;47.546;19.254;2022-10-17T08:20:39;14.02;;;10.30;;
51214;SDS011;63849;47.546;19.254;2022-10-17T08:23:08;11.85;;;10.25;;
51214;SDS011;63849;47.546;19.254;2022-10-17T08:25:36;13.00;;;9.13;;
51214;SDS011;63849;47.546;19.254;2022-10-17T08:28:03;13.90;;;9.48;;
51214;SDS011;63849;47.546;19.254;2022-10-17T08:30:29;9.65;;;8.07;;
51214;SDS011;63849;47.546;19.254;2022-10-17T08:32:55;9.63;;;8.15;;
51214;SDS011;63849;47.546;19.254;2022-10-17T08:35:21;12.40;;;8.13;;
51214;SDS011;63849;47.546;19.254;2022-10-17T08:37:47;10.30;;;7.88;;
51214;SDS011;63849;47.546;19.254;2022-10-17T08:40:16;13.65;;;9.18;;
51214;SDS011;63849;47.546;19.254;2022-10-17T08:42:57;12.85;;;9.70;;
51214;SDS011;63849;47.546;19.254;2022-10-17T08:45:35;13.00;;;9.15;;
51214;SDS011;63849;47.546;19.254;2022-10-17T08:48:13;11.45;;;8.43;;
51214;SDS011;63849;47.546;19.254;2022-10-17T08:50:47;10.90;;;7.80;;
51214;SDS011;63849;47.546;19.254;2022-10-17T08:53:24;13.15;;;8.30;;
51214;SDS011;63849;47.546;19.254;2022-10-17T08:55:55;13.10;;;8.07;;
51214;SDS011;63849;47.546;19.254;2022-10-17T09:01:13;12.32;;;7.20;;
51214;SDS011;63849;47.546;19.254;2022-10-17T09:07:07;10.52;;;6.97;;
51214;SDS011;63849;47.546;19.254;2022-10-17T09:15:56;8.95;;;7.43;;
51214;SDS011;63849;47.546;19.254;2022-10-17T09:18:30;7.00;;;6.30;;
51214;SDS011;63849;47.546;19.254;2022-10-17T09:21:38;9.15;;;7.20;;
51214;SDS011;63849;47.546;19.254;2022-10-17T09:23:58;8.85;;;7.32;;
51214;SDS011;63849;47.546;19.254;2022-10-17T09:26:28;10.02;;;7.53;;
51214;SDS011;63849;47.546;19.254;2022-10-17T09:28:55;10.73;;;7.47;;
51214;SDS011;63849;47.546;19.254;2022-10-17T09:31:25;10.43;;;7.15;;
51214;SDS011;63849;47.546;19.254;2022-10-17T09:33:55;9.98;;;7.30;;
51214;SDS011;63849;47.546;19.254;2022-10-17T09:36:34;10.68;;;6.55;;
51214;SDS011;63849;47.546;19.254;2022-10-17T09:39:08;13.38;;;6.65;;
51214;SDS011;63849;47.546;19.254;2022-10-17T09:41:50;9.77;;;6.95;;
51214;SDS011;63849;47.546;19.254;2022-10-17T09:44:24;10.07;;;6.72;;
51214;SDS011;63849;47.546;19.254;2022-10-17T09:46:53;11.23;;;7.32;;
51214;SDS011;63849;47.546;19.254;2022-10-17T09:49:33;15.35;;;7.88;;
51214;SDS011;63849;47.546;19.254;2022-10-17T09:52:05;9.68;;;6.50;;
51214;SDS011;63849;47.546;19.254;2022-10-17T10:00:29;10.88;;;6.38;;
51214;SDS011;63849;47.546;19.254;2022-10-17T10:03:07;9.27;;;6.95;;
51214;SDS011;63849;47.546;19.254;2022-10-17T10:06:22;6.80;;;5.70;;
51214;SDS011;63849;47.546;19.254;2022-10-17T10:08:52;7.60;;;5.80;;
51214;SDS011;63849;47.546;19.254;2022-10-17T10:11:24;7.15;;;5.57;;
51214;SDS011;63849;47.546;19.254;2022-10-17T10:14:12;10.93;;;5.65;;
51214;SDS011;63849;47.546;19.254;2022-10-17T10:17:00;7.10;;;5.40;;
51214;SDS011;63849;47.546;19.254;2022-10-17T10:19:35;8.98;;;5.75;;
51214;SDS011;63849;47.546;19.254;2022-10-17T10:22:03;8.43;;;4.72;;
51214;SDS011;63849;47.546;19.254;2022-10-17T10:24:42;6.05;;;5.40;;
51214;SDS011;63849;47.546;19.254;2022-10-17T10:27:12;7.53;;;5.88;;
51214;SDS011;63849;47.546;19.254;2022-10-17T10:29:41;6.57;;;5.85;;
51214;SDS011;63849;47.546;19.254;2022-10-17T10:35:05;8.27;;;5.47;;
51214;SDS011;63849;47.546;19.254;2022-10-17T10:37:43;7.78;;;5.95;;
51214;SDS011;63849;47.546;19.254;2022-10-17T10:42:48;10.38;;;6.05;;
51214;SDS011;63849;47.546;19.254;2022-10-17T10:45:17;6.55;;;5.78;;
51214;SDS011;63849;47.546;19.254;2022-10-17T10:47:54;8.45;;;6.05;;
51214;SDS011;63849;47.546;19.254;2022-10-17T10:55:26;6.55;;;5.07;;
51214;SDS011;63849;47.546;19.254;2022-10-17T10:57:57;6.25;;;5.13;;
51214;SDS011;63849;47.546;19.254;2022-10-17T11:00:28;6.85;;;4.90;;
51214;SDS011;63849;47.546;19.254;2022-10-17T11:03:03;9.25;;;5.35;;
51214;SDS011;63849;47.546;19.254;2022-10-17T11:05:51;8.82;;;4.88;;
51214;SDS011;63849;47.546;19.254;2022-10-17T11:11:25;8.18;;;5.38;;
51214;SDS011;63849;47.546;19.254;2022-10-17T11:13:59;6.20;;;4.93;;
51214;SDS011;63849;47.546;19.254;2022-10-17T11:19:24;9.43;;;5.45;;
51214;SDS011;63849;47.546;19.254;2022-10-17T11:24:45;11.02;;;5.88;;
51214;SDS011;63849;47.546;19.254;2022-10-17T11:27:21;6.97;;;5.25;;
51214;SDS011;63849;47.546;19.254;2022-10-17T11:29:48;8.48;;;5.32;;
51214;SDS011;63849;47.546;19.254;2022-10-17T11:32:26;9.43;;;5.50;;
51214;SDS011;63849;47.546;19.254;2022-10-17T11:35:02;11.70;;;5.40;;
51214;SDS011;63849;47.546;19.254;2022-10-17T11:37:38;6.20;;;5.60;;
51214;SDS011;63849;47.546;19.254;2022-10-17T11:40:18;5.93;;;5.35;;
51214;SDS011;63849;47.546;19.254;2022-10-17T11:42:52;8.32;;;5.05;;
51214;SDS011;63849;47.546;19.254;2022-10-17T11:45:27;5.55;;;4.47;;
51214;SDS011;63849;47.546;19.254;2022-10-17T11:47:59;9.20;;;5.10;;
51214;SDS011;63849;47.546;19.254;2022-10-17T11:50:37;7.50;;;5.63;;
51214;SDS011;63849;47.546;19.254;2022-10-17T11:53:14;8.40;;;4.90;;
51214;SDS011;63849;47.546;19.254;2022-10-17T11:55:48;6.72;;;4.70;;
51214;SDS011;63849;47.546;19.254;2022-10-17T12:01:13;6.15;;;4.95;;
51214;SDS011;63849;47.546;19.254;2022-10-17T12:12:25;8.43;;;4.65;;
51214;SDS011;63849;47.546;19.254;2022-10-17T12:14:52;7.53;;;5.28;;
51214;SDS011;63849;47.546;19.254;2022-10-17T12:17:31;7.05;;;4.88;;
51214;SDS011;63849;47.546;19.254;2022-10-17T12:25:47;6.20;;;5.15;;
51214;SDS011;63849;47.546;19.254;2022-10-17T12:30:59;6.35;;;4.50;;
51214;SDS011;63849;47.546;19.254;2022-10-17T12:33:58;10.88;;;4.78;;
51214;SDS011;63849;47.546;19.254;2022-10-17T12:42:20;7.28;;;4.70;;
51214;SDS011;63849;47.546;19.254;2022-10-17T12:49:46;7.03;;;4.32;;
51214;SDS011;63849;47.546;19.254;2022-10-17T12:53:13;5.70;;;4.43;;
51214;SDS011;63849;47.546;19.254;2022-10-17T12:55:11;5.97;;;4.15;;
51214;SDS011;63849;47.546;19.254;2022-10-17T13:02:44;7.60;;;5.03;;
51214;SDS011;63849;47.546;19.254;2022-10-17T13:05:15;6.05;;;4.35;;
51214;SDS011;63849;47.546;19.254;2022-10-17T13:07:58;8.80;;;4.07;;
51214;SDS011;63849;47.546;19.254;2022-10-17T13:10:27;6.85;;;4.38;;
51214;SDS011;63849;47.546;19.254;2022-10-17T13:13:05;6.30;;;4.40;;
51214;SDS011;63849;47.546;19.254;2022-10-17T13:15:48;8.05;;;4.10;;
51214;SDS011;63849;47.546;19.254;2022-10-17T13:18:20;7.88;;;4.75;;
51214;SDS011;63849;47.546;19.254;2022-10-17T13:21:02;6.97;;;3.75;;
51214;SDS011;63849;47.546;19.254;2022-10-17T13:23:32;5.93;;;3.78;;
51214;SDS011;63849;47.546;19.254;2022-10-17T13:26:15;7.88;;;3.90;;
51214;SDS011;63849;47.546;19.254;2022-10-17T13:28:59;4.50;;;3.50;;
51214;SDS011;63849;47.546;19.254;2022-10-17T13:31:32;3.85;;;3.47;;
51214;SDS011;63849;47.546;19.254;2022-10-17T13:34:01;4.57;;;3.78;;
51214;SDS011;63849;47.546;19.254;2022-10-17T13:36:29;5.63;;;3.42;;
51214;SDS011;63849;47.546;19.254;2022-10-17T13:38:57;4.40;;;3.78;;
51214;SDS011;63849;47.546;19.254;2022-10-17T13:41:28;7.88;;;4.03;;
51214;SDS011;63849;47.546;19.254;2022-10-17T13:43:56;6.35;;;3.90;;
51214;SDS011;63849;47.546;19.254;2022-10-17T13:46:27;5.55;;;4.15;;
51214;SDS011;63849;47.546;19.254;2022-10-17T13:48:55;5.05;;;4.03;;
51214;SDS011;63849;47.546;19.254;2022-10-17T13:51:23;5.40;;;3.95;;
51214;SDS011;63849;47.546;19.254;2022-10-17T13:53:52;4.20;;;3.60;;
51214;SDS011;63849;47.546;19.254;2022-10-17T13:56:22;7.30;;;4.28;;
51214;SDS011;63849;47.546;19.254;2022-10-17T13:58:51;11.05;;;4.15;;
51214;SDS011;63849;47.546;19.254;2022-10-17T14:01:24;4.28;;;3.63;;
51214;SDS011;63849;47.546;19.254;2022-10-17T14:03:52;7.05;;;3.83;;
51214;SDS011;63849;47.546;19.254;2022-10-17T14:08:48;7.18;;;3.83;;
51214;SDS011;63849;47.546;19.254;2022-10-17T14:11:22;10.13;;;4.20;;
51214;SDS011;63849;47.546;19.254;2022-10-17T14:13:59;5.88;;;4.85;;
51214;SDS011;63849;47.546;19.254;2022-10-17T14:16:31;7.82;;;4.57;;
51214;SDS011;63849;47.546;19.254;2022-10-17T14:19:00;5.63;;;3.90;;
51214;SDS011;63849;47.546;19.254;2022-10-17T14:21:26;7.40;;;3.75;;
51214;SDS011;63849;47.546;19.254;2022-10-17T14:24:11;5.35;;;3.53;;
51214;SDS011;63849;47.546;19.254;2022-10-17T14:26:52;8.77;;;3.95;;
51214;SDS011;63849;47.546;19.254;2022-10-17T14:31:55;4.88;;;4.00;;
51214;SDS011;63849;47.546;19.254;2022-10-17T14:34:35;5.03;;;4.05;;
51214;SDS011;63849;47.546;19.254;2022-10-17T14:37:09;8.52;;;4.72;;
51214;SDS011;63849;47.546;19.254;2022-10-17T14:39:36;6.00;;;4.50;;
51214;SDS011;63849;47.546;19.254;2022-10-17T14:42:03;11.95;;;4.45;;
51214;SDS011;63849;47.546;19.254;2022-10-17T14:44:32;7.15;;;4.57;;
51214;SDS011;63849;47.546;19.254;2022-10-17T14:47:00;13.65;;;5.28;;
51214;SDS011;63849;47.546;19.254;2022-10-17T14:49:38;9.27;;;5.25;;
51214;SDS011;63849;47.546;19.254;2022-10-17T14:52:38;6.68;;;4.72;;
51214;SDS011;63849;47.546;19.254;2022-10-17T14:54:58;6.73;;;4.10;;
51214;SDS011;63849;47.546;19.254;2022-10-17T14:57:42;6.70;;;4.07;;
51214;SDS011;63849;47.546;19.254;2022-10-17T15:00:12;7.18;;;4.43;;
51214;SDS011;63849;47.546;19.254;2022-10-17T15:02:43;8.00;;;4.72;;
51214;SDS011;63849;47.546;19.254;2022-10-17T15:05:09;7.88;;;3.83;;
51214;SDS011;63849;47.546;19.254;2022-10-17T15:07:35;6.93;;;4.75;;
51214;SDS011;63849;47.546;19.254;2022-10-17T15:10:01;6.40;;;4.85;;
51214;SDS011;63849;47.546;19.254;2022-10-17T15:12:27;7.28;;;4.50;;
51214;SDS011;63849;47.546;19.254;2022-10-17T15:14:53;9.20;;;5.68;;
51214;SDS011;63849;47.546;19.254;2022-10-17T15:17:31;8.57;;;6.80;;
51214;SDS011;63849;47.546;19.254;2022-10-17T15:19:58;10.95;;;7.00;;
51214;SDS011;63849;47.546;19.254;2022-10-17T15:22:24;9.00;;;6.95;;
51214;SDS011;63849;47.546;19.254;2022-10-17T15:24:50;8.15;;;6.18;;
51214;SDS011;63849;47.546;19.254;2022-10-17T15:27:20;7.45;;;6.00;;
51214;SDS011;63849;47.546;19.254;2022-10-17T15:29:47;11.88;;;6.65;;
51214;SDS011;63849;47.546;19.254;2022-10-17T15:32:14;8.60;;;5.78;;
51214;SDS011;63849;47.546;19.254;2022-10-17T15:34:40;8.15;;;6.97;;
51214;SDS011;63849;47.546;19.254;2022-10-17T15:37:06;14.35;;;10.68;;
51214;SDS011;63849;47.546;19.254;2022-10-17T15:39:46;15.48;;;13.55;;
51214;SDS011;63849;47.546;19.254;2022-10-17T15:42:17;17.63;;;14.63;;
51214;SDS011;63849;47.546;19.254;2022-10-17T15:44:43;18.92;;;13.77;;
51214;SDS011;63849;47.546;19.254;2022-10-17T15:47:17;16.25;;;13.52;;
51214;SDS011;63849;47.546;19.254;2022-10-17T15:49:50;15.00;;;11.90;;
51214;SDS011;63849;47.546;19.254;2022-10-17T15:52:17;15.30;;;11.50;;
51214;SDS011;63849;47.546;19.254;2022-10-17T15:54:44;12.85;;;10.98;;
51214;SDS011;63849;47.546;19.254;2022-10-17T15:57:15;15.65;;;11.30;;
51214;SDS011;63849;47.546;19.254;2022-10-17T15:59:46;12.77;;;10.77;;
51214;SDS011;63849;47.546;19.254;2022-10-17T16:02:14;14.85;;;11.70;;
51214;SDS011;63849;47.546;19.254;2022-10-17T16:04:41;18.98;;;10.95;;
51214;SDS011;63849;47.546;19.254;2022-10-17T16:07:08;16.23;;;11.18;;
51214;SDS011;63849;47.546;19.254;2022-10-17T16:09:34;15.02;;;10.20;;
51214;SDS011;63849;47.546;19.254;2022-10-17T16:12:01;19.63;;;12.60;;
51214;SDS011;63849;47.546;19.254;2022-10-17T16:14:29;13.93;;;11.23;;
51214;SDS011;63849;47.546;19.254;2022-10-17T16:16:56;16.70;;;12.63;;
51214;SDS011;63849;47.546;19.254;2022-10-17T16:19:23;18.20;;;12.60;;
51214;SDS011;63849;47.546;19.254;2022-10-17T16:21:54;16.75;;;12.18;;
51214;SDS011;63849;47.546;19.254;2022-10-17T16:24:25;20.38;;;13.43;;
51214;SDS011;63849;47.546;19.254;2022-10-17T16:26:51;20.38;;;13.00;;